sensor_id;sensor_type;location;lat;lon;timestamp;pressure;altitude;pressure_sealevel;temperature;humidity
57616;BME280;43816;52.054;-9.494;2022-08-11T00:00:03;101950.44;;;26.15;40.47
57616;BME280;43816;52.054;-9.494;2022-08-11T00:00:14;101943.91;;;26.16;40.40
57616;BME280;43816;52.054;-9.494;2022-08-11T00:00:39;101948.53;;;26.16;40.46
57616;BME280;43816;52.054;-9.494;2022-08-11T00:00:51;101953.22;;;26.15;40.84
57616;BME280;43816;52.054;-9.494;2022-08-11T00:01:22;101944.94;;;26.15;40.54
57616;BME280;43816;52.054;-9.494;2022-08-11T00:01:33;101950.44;;;26.15;40.27
57616;BME280;43816;52.054;-9.494;2022-08-11T00:01:51;101951.28;;;26.16;40.13
57616;BME280;43816;52.054;-9.494;2022-08-11T00:02:03;101948.72;;;26.14;40.58
57616;BME280;43816;52.054;-9.494;2022-08-11T00:02:14;101955.31;;;26.13;40.35
57616;BME280;43816;52.054;-9.494;2022-08-11T00:02:33;101953.59;;;26.12;40.51
57616;BME280;43816;52.054;-9.494;2022-08-11T00:02:50;101959.09;;;26.12;40.52
57616;BME280;43816;52.054;-9.494;2022-08-11T00:03:06;101951.03;;;26.11;40.48
57616;BME280;43816;52.054;-9.494;2022-08-11T00:03:17;101954.84;;;26.10;40.42
57616;BME280;43816;52.054;-9.494;2022-08-11T00:03:28;101952.94;;;26.10;40.30
57616;BME280;43816;52.054;-9.494;2022-08-11T00:03:47;101953.97;;;26.09;40.37
57616;BME280;43816;52.054;-9.494;2022-08-11T00:04:01;101957.78;;;26.08;40.27
57616;BME280;43816;52.054;-9.494;2022-08-11T00:04:13;101953.13;;;26.09;40.33
57616;BME280;43816;52.054;-9.494;2022-08-11T00:04:33;101957.59;;;26.10;40.56
57616;BME280;43816;52.054;-9.494;2022-08-11T00:04:44;101953.97;;;26.09;40.36
57616;BME280;43816;52.054;-9.494;2022-08-11T00:04:55;101965.88;;;26.10;40.16
57616;BME280;43816;52.054;-9.494;2022-08-11T00:05:12;101957.78;;;26.08;40.27
57616;BME280;43816;52.054;-9.494;2022-08-11T00:05:23;101959.69;;;26.08;40.36
57616;BME280;43816;52.054;-9.494;2022-08-11T00:05:44;101956.06;;;26.07;40.73
57616;BME280;43816;52.054;-9.494;2022-08-11T00:05:55;101949.72;;;26.07;40.21
57616;BME280;43816;52.054;-9.494;2022-08-11T00:06:06;101959.88;;;26.06;40.50
57616;BME280;43816;52.054;-9.494;2022-08-11T00:06:26;101956.25;;;26.06;40.64
57616;BME280;43816;52.054;-9.494;2022-08-11T00:06:38;101956.44;;;26.04;40.53
57616;BME280;43816;52.054;-9.494;2022-08-11T00:06:50;101958.19;;;26.05;40.42
57616;BME280;43816;52.054;-9.494;2022-08-11T00:07:03;101952.66;;;26.05;40.37
57616;BME280;43816;52.054;-9.494;2022-08-11T00:07:14;101952.00;;;26.03;40.41
57616;BME280;43816;52.054;-9.494;2022-08-11T00:07:25;101951.78;;;26.04;40.41
57616;BME280;43816;52.054;-9.494;2022-08-11T00:07:56;101951.31;;;26.01;40.65
57616;BME280;43816;52.054;-9.494;2022-08-11T00:08:08;101955.78;;;26.02;40.38
57616;BME280;43816;52.054;-9.494;2022-08-11T00:08:24;101959.22;;;26.04;40.33
57616;BME280;43816;52.054;-9.494;2022-08-11T00:08:34;101961.97;;;26.04;40.58
57616;BME280;43816;52.054;-9.494;2022-08-11T00:08:49;101960.28;;;26.03;40.42
57616;BME280;43816;52.054;-9.494;2022-08-11T00:09:02;101959.41;;;26.02;40.14
57616;BME280;43816;52.054;-9.494;2022-08-11T00:09:18;101954.06;;;26.01;40.55
57616;BME280;43816;52.054;-9.494;2022-08-11T00:09:35;101949.63;;;26.00;40.68
57616;BME280;43816;52.054;-9.494;2022-08-11T00:09:46;101955.97;;;26.00;40.63
57616;BME280;43816;52.054;-9.494;2022-08-11T00:09:57;101952.38;;;26.00;40.64
57616;BME280;43816;52.054;-9.494;2022-08-11T00:10:13;101963.41;;;26.00;40.56
57616;BME280;43816;52.054;-9.494;2022-08-11T00:10:26;101961.69;;;25.99;40.48
57616;BME280;43816;52.054;-9.494;2022-08-11T00:10:37;101958.09;;;25.98;40.60
57616;BME280;43816;52.054;-9.494;2022-08-11T00:10:53;101958.09;;;25.98;40.36
57616;BME280;43816;52.054;-9.494;2022-08-11T00:11:07;101960.19;;;25.96;40.76
57616;BME280;43816;52.054;-9.494;2022-08-11T00:11:18;101956.56;;;25.96;40.63
57616;BME280;43816;52.054;-9.494;2022-08-11T00:11:33;101958.28;;;25.97;40.82
57616;BME280;43816;52.054;-9.494;2022-08-11T00:11:48;101959.31;;;25.96;40.39
57616;BME280;43816;52.054;-9.494;2022-08-11T00:12:00;101957.59;;;25.95;40.40
57616;BME280;43816;52.054;-9.494;2022-08-11T00:12:13;101952.94;;;25.95;40.71
57616;BME280;43816;52.054;-9.494;2022-08-11T00:12:24;101958.47;;;25.95;40.42
57616;BME280;43816;52.054;-9.494;2022-08-11T00:12:35;101957.59;;;25.95;40.80
57616;BME280;43816;52.054;-9.494;2022-08-11T00:12:59;101962.22;;;25.94;40.59
57616;BME280;43816;52.054;-9.494;2022-08-11T00:13:10;101964.13;;;25.94;40.85
57616;BME280;43816;52.054;-9.494;2022-08-11T00:13:21;101957.97;;;25.92;40.59
57616;BME280;43816;52.054;-9.494;2022-08-11T00:13:38;101955.19;;;25.92;40.57
57616;BME280;43816;52.054;-9.494;2022-08-11T00:13:49;101955.19;;;25.92;40.59
57616;BME280;43816;52.054;-9.494;2022-08-11T00:14:00;101955.19;;;25.92;40.61
57616;BME280;43816;52.054;-9.494;2022-08-11T00:14:22;101956.25;;;25.91;40.78
57616;BME280;43816;52.054;-9.494;2022-08-11T00:14:33;101951.78;;;25.90;40.64
57616;BME280;43816;52.054;-9.494;2022-08-11T00:14:44;101953.66;;;25.89;40.86
57616;BME280;43816;52.054;-9.494;2022-08-11T00:14:58;101957.50;;;25.88;40.71
57616;BME280;43816;52.054;-9.494;2022-08-11T00:15:09;101952.81;;;25.89;40.55
57616;BME280;43816;52.054;-9.494;2022-08-11T00:15:21;101960.25;;;25.88;40.56
57616;BME280;43816;52.054;-9.494;2022-08-11T00:15:43;101950.25;;;25.87;40.73
57616;BME280;43816;52.054;-9.494;2022-08-11T00:15:54;101950.25;;;25.87;40.70
57616;BME280;43816;52.054;-9.494;2022-08-11T00:16:12;101954.72;;;25.88;40.49
57616;BME280;43816;52.054;-9.494;2022-08-11T00:16:24;101953.84;;;25.88;40.41
57616;BME280;43816;52.054;-9.494;2022-08-11T00:16:34;101952.16;;;25.87;40.58
57616;BME280;43816;52.054;-9.494;2022-08-11T00:16:58;101950.25;;;25.87;40.80
57616;BME280;43816;52.054;-9.494;2022-08-11T00:17:13;101953.19;;;25.85;40.67
57616;BME280;43816;52.054;-9.494;2022-08-11T00:17:30;101953.19;;;25.85;40.63
57616;BME280;43816;52.054;-9.494;2022-08-11T00:17:42;101953.19;;;25.85;40.73
57616;BME280;43816;52.054;-9.494;2022-08-11T00:17:58;101952.34;;;25.85;40.86
57616;BME280;43816;52.054;-9.494;2022-08-11T00:18:10;101953.19;;;25.85;40.73
57616;BME280;43816;52.054;-9.494;2022-08-11T00:18:20;101949.78;;;25.83;40.56
57616;BME280;43816;52.054;-9.494;2022-08-11T00:18:42;101954.22;;;25.84;40.50
57616;BME280;43816;52.054;-9.494;2022-08-11T00:18:55;101954.41;;;25.83;40.74
57616;BME280;43816;52.054;-9.494;2022-08-11T00:19:06;101961.66;;;25.84;40.87
57616;BME280;43816;52.054;-9.494;2022-08-11T00:19:23;101954.41;;;25.83;40.74
57616;BME280;43816;52.054;-9.494;2022-08-11T00:19:39;101960.16;;;25.81;40.95
57616;BME280;43816;52.054;-9.494;2022-08-11T00:19:50;101951.88;;;25.81;40.62
57616;BME280;43816;52.054;-9.494;2022-08-11T00:20:05;101953.56;;;25.82;40.71
57616;BME280;43816;52.054;-9.494;2022-08-11T00:20:16;101955.69;;;25.80;40.68
57616;BME280;43816;52.054;-9.494;2022-08-11T00:20:31;101960.16;;;25.81;40.74
57616;BME280;43816;52.054;-9.494;2022-08-11T00:20:43;101956.53;;;25.81;40.74
57616;BME280;43816;52.054;-9.494;2022-08-11T00:20:57;101953.75;;;25.81;40.50
57616;BME280;43816;52.054;-9.494;2022-08-11T00:21:09;101961.19;;;25.80;40.70
57616;BME280;43816;52.054;-9.494;2022-08-11T00:21:22;101959.28;;;25.81;40.85
57616;BME280;43816;52.054;-9.494;2022-08-11T00:21:39;101959.28;;;25.81;40.85
57616;BME280;43816;52.054;-9.494;2022-08-11T00:21:52;101961.84;;;25.82;40.40
57616;BME280;43816;52.054;-9.494;2022-08-11T00:22:05;101960.34;;;25.80;40.80
57616;BME280;43816;52.054;-9.494;2022-08-11T00:22:22;101953.28;;;25.77;40.78
57616;BME280;43816;52.054;-9.494;2022-08-11T00:22:33;101960.72;;;25.77;40.78
57616;BME280;43816;52.054;-9.494;2022-08-11T00:22:45;101952.44;;;25.77;40.86
57616;BME280;43816;52.054;-9.494;2022-08-11T00:23:01;101960.91;;;25.75;40.62
57616;BME280;43816;52.054;-9.494;2022-08-11T00:23:14;101959.00;;;25.76;40.54
57616;BME280;43816;52.054;-9.494;2022-08-11T00:23:25;101963.84;;;25.74;40.97
57616;BME280;43816;52.054;-9.494;2022-08-11T00:23:45;101960.25;;;25.73;40.63
57616;BME280;43816;52.054;-9.494;2022-08-11T00:23:59;101957.50;;;25.73;40.81
57616;BME280;43816;52.054;-9.494;2022-08-11T00:24:10;101959.19;;;25.74;41.10
57616;BME280;43816;52.054;-9.494;2022-08-11T00:24:21;101959.19;;;25.74;40.50
57616;BME280;43816;52.054;-9.494;2022-08-11T00:24:34;101954.53;;;25.75;40.59
57616;BME280;43816;52.054;-9.494;2022-08-11T00:24:45;101957.31;;;25.75;40.63
57616;BME280;43816;52.054;-9.494;2022-08-11T00:24:57;101963.66;;;25.75;40.81
57616;BME280;43816;52.054;-9.494;2022-08-11T00:25:17;101958.16;;;25.75;41.00
57616;BME280;43816;52.054;-9.494;2022-08-11T00:25:28;101957.31;;;25.75;40.49
57616;BME280;43816;52.054;-9.494;2022-08-11T00:25:50;101965.56;;;25.75;40.56
57616;BME280;43816;52.054;-9.494;2022-08-11T00:26:05;101958.34;;;25.74;40.70
57616;BME280;43816;52.054;-9.494;2022-08-11T00:26:16;101961.28;;;25.72;40.52
57616;BME280;43816;52.054;-9.494;2022-08-11T00:26:28;101954.91;;;25.72;40.98
57616;BME280;43816;52.054;-9.494;2022-08-11T00:26:39;101955.94;;;25.71;40.63
57616;BME280;43816;52.054;-9.494;2022-08-11T00:26:51;101955.94;;;25.71;40.99
57616;BME280;43816;52.054;-9.494;2022-08-11T00:27:02;101955.94;;;25.71;40.79
57616;BME280;43816;52.054;-9.494;2022-08-11T00:27:13;101956.13;;;25.69;40.84
57616;BME280;43816;52.054;-9.494;2022-08-11T00:27:34;101962.72;;;25.68;40.84
57616;BME280;43816;52.054;-9.494;2022-08-11T00:27:46;101957.22;;;25.68;40.51
57616;BME280;43816;52.054;-9.494;2022-08-11T00:27:56;101955.47;;;25.67;41.02
57616;BME280;43816;52.054;-9.494;2022-08-11T00:28:30;101956.31;;;25.67;40.66
57616;BME280;43816;52.054;-9.494;2022-08-11T00:28:41;101951.88;;;25.66;40.71
57616;BME280;43816;52.054;-9.494;2022-08-11T00:28:52;101954.63;;;25.66;40.89
57616;BME280;43816;52.054;-9.494;2022-08-11T00:29:11;101958.25;;;25.67;40.70
57616;BME280;43816;52.054;-9.494;2022-08-11T00:29:22;101956.69;;;25.64;40.49
57616;BME280;43816;52.054;-9.494;2022-08-11T00:29:33;101968.59;;;25.65;40.69
57616;BME280;43816;52.054;-9.494;2022-08-11T00:29:53;101960.53;;;25.63;40.86
57616;BME280;43816;52.054;-9.494;2022-08-11T00:30:05;101961.38;;;25.64;40.99
57616;BME280;43816;52.054;-9.494;2022-08-11T00:30:16;101953.09;;;25.64;40.78
57616;BME280;43816;52.054;-9.494;2022-08-11T00:30:37;101960.34;;;25.65;40.67
57616;BME280;43816;52.054;-9.494;2022-08-11T00:30:50;101951.19;;;25.64;40.90
57616;BME280;43816;52.054;-9.494;2022-08-11T00:31:03;101955.84;;;25.64;40.53
57616;BME280;43816;52.054;-9.494;2022-08-11T00:31:27;101961.75;;;25.61;40.89
57616;BME280;43816;52.054;-9.494;2022-08-11T00:31:43;101958.13;;;25.60;40.98
57616;BME280;43816;52.054;-9.494;2022-08-11T00:31:56;101956.22;;;25.61;40.75
57616;BME280;43816;52.054;-9.494;2022-08-11T00:32:12;101954.53;;;25.60;40.57
57616;BME280;43816;52.054;-9.494;2022-08-11T00:32:23;101956.22;;;25.61;40.78
57616;BME280;43816;52.054;-9.494;2022-08-11T00:32:37;101960.03;;;25.60;40.53
57616;BME280;43816;52.054;-9.494;2022-08-11T00:32:54;101949.41;;;25.57;41.03
57616;BME280;43816;52.054;-9.494;2022-08-11T00:33:06;101953.84;;;25.58;40.97
57616;BME280;43816;52.054;-9.494;2022-08-11T00:33:17;101955.75;;;25.57;41.06
57616;BME280;43816;52.054;-9.494;2022-08-11T00:33:48;101952.34;;;25.55;40.53
57616;BME280;43816;52.054;-9.494;2022-08-11T00:34:00;101953.19;;;25.56;41.15
57616;BME280;43816;52.054;-9.494;2022-08-11T00:34:12;101953.19;;;25.56;40.83
57616;BME280;43816;52.054;-9.494;2022-08-11T00:34:25;101957.84;;;25.55;40.75
57616;BME280;43816;52.054;-9.494;2022-08-11T00:34:37;101954.03;;;25.56;40.93
57616;BME280;43816;52.054;-9.494;2022-08-11T00:34:48;101954.25;;;25.55;40.61
57616;BME280;43816;52.054;-9.494;2022-08-11T00:34:59;101951.50;;;25.55;41.08
57616;BME280;43816;52.054;-9.494;2022-08-11T00:35:14;101950.63;;;25.54;41.15
57616;BME280;43816;52.054;-9.494;2022-08-11T00:35:27;101944.06;;;25.55;40.88
57616;BME280;43816;52.054;-9.494;2022-08-11T00:35:39;101948.94;;;25.53;40.72
57616;BME280;43816;52.054;-9.494;2022-08-11T00:35:50;101953.75;;;25.51;41.00
57616;BME280;43816;52.054;-9.494;2022-08-11T00:36:08;101952.72;;;25.52;40.67
57616;BME280;43816;52.054;-9.494;2022-08-11T00:36:27;101943.59;;;25.52;41.02
57616;BME280;43816;52.054;-9.494;2022-08-11T00:36:46;101946.34;;;25.52;41.10
57616;BME280;43816;52.054;-9.494;2022-08-11T00:37:16;101948.22;;;25.51;40.87
57616;BME280;43816;52.054;-9.494;2022-08-11T00:37:28;101946.53;;;25.50;41.11
57616;BME280;43816;52.054;-9.494;2022-08-11T00:37:46;101945.66;;;25.49;40.77
57616;BME280;43816;52.054;-9.494;2022-08-11T00:37:58;101948.41;;;25.49;40.93
57616;BME280;43816;52.054;-9.494;2022-08-11T00:38:09;101949.47;;;25.48;40.95
57616;BME280;43816;52.054;-9.494;2022-08-11T00:38:23;101942.91;;;25.49;40.93
57616;BME280;43816;52.054;-9.494;2022-08-11T00:38:37;101948.63;;;25.48;40.79
57616;BME280;43816;52.054;-9.494;2022-08-11T00:38:51;101945.00;;;25.47;40.73
57616;BME280;43816;52.054;-9.494;2022-08-11T00:39:04;101950.50;;;25.47;40.83
57616;BME280;43816;52.054;-9.494;2022-08-11T00:39:16;101943.31;;;25.46;41.24
57616;BME280;43816;52.054;-9.494;2022-08-11T00:39:31;101945.00;;;25.47;40.80
57616;BME280;43816;52.054;-9.494;2022-08-11T00:39:46;101946.72;;;25.48;40.80
57616;BME280;43816;52.054;-9.494;2022-08-11T00:39:57;101937.63;;;25.48;40.83
57616;BME280;43816;52.054;-9.494;2022-08-11T00:40:17;101940.56;;;25.46;40.75
57616;BME280;43816;52.054;-9.494;2022-08-11T00:40:44;101940.38;;;25.48;40.86
57616;BME280;43816;52.054;-9.494;2022-08-11T00:41:10;101935.22;;;25.45;40.75
57616;BME280;43816;52.054;-9.494;2022-08-11T00:41:33;101943.69;;;25.43;40.82
57616;BME280;43816;52.054;-9.494;2022-08-11T00:42:44;101952.50;;;25.39;40.99
57616;BME280;43816;52.054;-9.494;2022-08-11T00:43:16;101951.66;;;25.38;40.78
57616;BME280;43816;52.054;-9.494;2022-08-11T00:44:14;101948.22;;;25.36;41.07
57616;BME280;43816;52.054;-9.494;2022-08-11T00:44:44;101955.44;;;25.37;41.10
57616;BME280;43816;52.054;-9.494;2022-08-11T00:45:08;101959.22;;;25.36;41.20
57616;BME280;43816;52.054;-9.494;2022-08-11T00:45:30;101949.28;;;25.35;41.09
57616;BME280;43816;52.054;-9.494;2022-08-11T00:45:50;101949.28;;;25.35;40.80
57616;BME280;43816;52.054;-9.494;2022-08-11T00:46:09;101949.47;;;25.34;40.82
57616;BME280;43816;52.054;-9.494;2022-08-11T00:46:41;101950.31;;;25.34;40.94
57616;BME280;43816;52.054;-9.494;2022-08-11T00:48:23;101952.22;;;25.34;40.90
57616;BME280;43816;52.054;-9.494;2022-08-11T00:48:46;101956.88;;;25.33;41.02
57616;BME280;43816;52.054;-9.494;2022-08-11T00:50:40;101943.84;;;25.27;40.98
57616;BME280;43816;52.054;-9.494;2022-08-11T00:51:23;101948.28;;;25.28;40.97
57616;BME280;43816;52.054;-9.494;2022-08-11T00:51:47;101948.50;;;25.26;40.98
57616;BME280;43816;52.054;-9.494;2022-08-11T00:52:30;101948.66;;;25.25;41.03
57616;BME280;43816;52.054;-9.494;2022-08-11T00:53:47;101944.53;;;25.21;40.99
57616;BME280;43816;52.054;-9.494;2022-08-11T00:54:14;101952.81;;;25.21;41.00
57616;BME280;43816;52.054;-9.494;2022-08-11T00:57:02;101945.59;;;25.20;41.31
57616;BME280;43816;52.054;-9.494;2022-08-11T00:59:46;101952.03;;;25.12;41.00
57616;BME280;43816;52.054;-9.494;2022-08-11T01:00:21;101940.16;;;25.11;41.24
57616;BME280;43816;52.054;-9.494;2022-08-11T01:03:23;101942.63;;;25.06;41.11
57616;BME280;43816;52.054;-9.494;2022-08-11T01:04:29;101940.91;;;25.05;41.30
57616;BME280;43816;52.054;-9.494;2022-08-11T01:09:30;101939.06;;;24.98;41.50
57616;BME280;43816;52.054;-9.494;2022-08-11T01:16:04;101926.59;;;24.87;41.59
57616;BME280;43816;52.054;-9.494;2022-08-11T01:20:02;101933.69;;;24.81;41.31
57616;BME280;43816;52.054;-9.494;2022-08-11T01:22:31;101927.03;;;24.75;41.69
57616;BME280;43816;52.054;-9.494;2022-08-11T01:24:46;101921.59;;;24.67;41.70
57616;BME280;43816;52.054;-9.494;2022-08-11T01:27:26;101920.75;;;24.67;41.65
57616;BME280;43816;52.054;-9.494;2022-08-11T01:28:02;101919.88;;;24.66;41.67
57616;BME280;43816;52.054;-9.494;2022-08-11T01:31:49;101918.53;;;24.62;41.71
57616;BME280;43816;52.054;-9.494;2022-08-11T01:33:38;101927.31;;;24.58;41.68
57616;BME280;43816;52.054;-9.494;2022-08-11T01:35:32;101922.34;;;24.53;41.71
57616;BME280;43816;52.054;-9.494;2022-08-11T01:37:39;101924.91;;;24.54;41.85
57616;BME280;43816;52.054;-9.494;2022-08-11T01:40:09;101921.34;;;24.46;41.75
57616;BME280;43816;52.054;-9.494;2022-08-11T01:40:54;101924.09;;;24.46;41.84
57616;BME280;43816;52.054;-9.494;2022-08-11T01:42:14;101925.84;;;24.47;41.82
57616;BME280;43816;52.054;-9.494;2022-08-11T01:44:20;101925.69;;;24.40;41.76
57616;BME280;43816;52.054;-9.494;2022-08-11T01:45:20;101926.56;;;24.41;41.78
57616;BME280;43816;52.054;-9.494;2022-08-11T01:46:06;101928.63;;;24.38;41.89
57616;BME280;43816;52.054;-9.494;2022-08-11T01:46:27;101918.47;;;24.39;41.94
57616;BME280;43816;52.054;-9.494;2022-08-11T01:46:51;101923.13;;;24.38;41.95
57616;BME280;43816;52.054;-9.494;2022-08-11T01:47:16;101920.75;;;24.35;41.82
57616;BME280;43816;52.054;-9.494;2022-08-11T01:48:21;101920.91;;;24.34;41.84
57616;BME280;43816;52.054;-9.494;2022-08-11T01:49:20;101916.63;;;24.31;41.76
57616;BME280;43816;52.054;-9.494;2022-08-11T01:49:44;101929.34;;;24.32;41.85
57616;BME280;43816;52.054;-9.494;2022-08-11T01:51:34;101921.09;;;24.32;41.95
57616;BME280;43816;52.054;-9.494;2022-08-11T01:52:18;101927.63;;;24.31;41.95
57616;BME280;43816;52.054;-9.494;2022-08-11T01:52:57;101926.28;;;24.27;41.82
57616;BME280;43816;52.054;-9.494;2022-08-11T01:56:45;101923.22;;;24.22;42.11
57616;BME280;43816;52.054;-9.494;2022-08-11T01:57:38;101923.41;;;24.20;41.96
57616;BME280;43816;52.054;-9.494;2022-08-11T01:57:59;101925.31;;;24.20;42.07
57616;BME280;43816;52.054;-9.494;2022-08-11T01:58:47;101917.41;;;24.17;42.05
57616;BME280;43816;52.054;-9.494;2022-08-11T01:59:17;101918.44;;;24.16;42.10
57616;BME280;43816;52.054;-9.494;2022-08-11T01:59:35;101916.75;;;24.15;42.18
57616;BME280;43816;52.054;-9.494;2022-08-11T01:59:49;101914.00;;;24.15;42.05
57616;BME280;43816;52.054;-9.494;2022-08-11T02:00:30;101925.16;;;24.13;42.05
57616;BME280;43816;52.054;-9.494;2022-08-11T02:03:13;101924.47;;;24.11;41.66
57616;BME280;43816;52.054;-9.494;2022-08-11T02:03:51;101920.03;;;24.10;42.24
57616;BME280;43816;52.054;-9.494;2022-08-11T02:05:13;101914.03;;;24.07;42.20
57616;BME280;43816;52.054;-9.494;2022-08-11T02:06:44;101917.81;;;24.06;42.09
57616;BME280;43816;52.054;-9.494;2022-08-11T02:07:03;101912.31;;;24.06;42.08
57616;BME280;43816;52.054;-9.494;2022-08-11T02:08:46;101916.47;;;24.01;42.03
57616;BME280;43816;52.054;-9.494;2022-08-11T02:09:19;101911.81;;;24.02;42.22
57616;BME280;43816;52.054;-9.494;2022-08-11T02:10:34;101903.75;;;24.00;42.19
57616;BME280;43816;52.054;-9.494;2022-08-11T02:11:08;101912.00;;;24.00;42.04
57616;BME280;43816;52.054;-9.494;2022-08-11T02:11:27;101912.84;;;24.01;42.15
57616;BME280;43816;52.054;-9.494;2022-08-11T02:11:37;101910.25;;;23.99;42.17
57616;BME280;43816;52.054;-9.494;2022-08-11T02:11:49;101909.25;;;24.00;42.24
57616;BME280;43816;52.054;-9.494;2022-08-11T02:12:17;101915.75;;;23.99;42.17
57616;BME280;43816;52.054;-9.494;2022-08-11T02:12:57;101917.16;;;23.95;42.36
57616;BME280;43816;52.054;-9.494;2022-08-11T02:13:34;101916.31;;;23.95;42.20
57616;BME280;43816;52.054;-9.494;2022-08-11T02:13:52;101913.75;;;23.93;42.15
57616;BME280;43816;52.054;-9.494;2022-08-11T02:14:30;101914.41;;;23.95;42.15
57616;BME280;43816;52.054;-9.494;2022-08-11T02:15:00;101914.41;;;23.95;42.29
57616;BME280;43816;52.054;-9.494;2022-08-11T02:15:26;101913.56;;;23.95;42.28
57616;BME280;43816;52.054;-9.494;2022-08-11T02:15:44;101920.94;;;23.94;42.30
57616;BME280;43816;52.054;-9.494;2022-08-11T02:16:09;101920.94;;;23.94;42.27
57616;BME280;43816;52.054;-9.494;2022-08-11T02:16:31;101917.53;;;23.92;42.18
57616;BME280;43816;52.054;-9.494;2022-08-11T02:16:52;101917.69;;;23.91;42.28
57616;BME280;43816;52.054;-9.494;2022-08-11T02:18:35;101913.44;;;23.88;42.26
57616;BME280;43816;52.054;-9.494;2022-08-11T02:18:54;101909.97;;;23.86;42.32
57616;BME280;43816;52.054;-9.494;2022-08-11T02:19:17;101908.09;;;23.87;42.33
57616;BME280;43816;52.054;-9.494;2022-08-11T02:21:02;101910.31;;;23.83;42.41
57616;BME280;43816;52.054;-9.494;2022-08-11T02:21:26;101914.81;;;23.84;42.56
57616;BME280;43816;52.054;-9.494;2022-08-11T02:21:50;101922.88;;;23.86;42.37
57616;BME280;43816;52.054;-9.494;2022-08-11T02:22:10;101914.81;;;23.84;42.37
57616;BME280;43816;52.054;-9.494;2022-08-11T02:23:17;101925.13;;;23.82;42.36
57616;BME280;43816;52.054;-9.494;2022-08-11T02:23:57;101921.31;;;23.83;42.28
57616;BME280;43816;52.054;-9.494;2022-08-11T02:24:33;101915.13;;;23.81;42.30
57616;BME280;43816;52.054;-9.494;2022-08-11T02:24:51;101919.63;;;23.82;42.21
57616;BME280;43816;52.054;-9.494;2022-08-11T02:25:08;101919.78;;;23.80;42.29
57616;BME280;43816;52.054;-9.494;2022-08-11T02:25:34;101925.44;;;23.79;42.22
57616;BME280;43816;52.054;-9.494;2022-08-11T02:25:54;101919.09;;;23.78;42.24
57616;BME280;43816;52.054;-9.494;2022-08-11T02:27:01;101922.03;;;23.77;42.39
57616;BME280;43816;52.054;-9.494;2022-08-11T02:27:20;101929.59;;;23.75;42.26
57616;BME280;43816;52.054;-9.494;2022-08-11T02:27:49;101927.00;;;23.73;42.25
57616;BME280;43816;52.054;-9.494;2022-08-11T02:28:09;101918.25;;;23.70;42.53
57616;BME280;43816;52.054;-9.494;2022-08-11T02:28:30;101917.41;;;23.69;42.51
57616;BME280;43816;52.054;-9.494;2022-08-11T02:29:17;101917.22;;;23.71;42.37
57616;BME280;43816;52.054;-9.494;2022-08-11T02:29:59;101926.31;;;23.71;42.35
57616;BME280;43816;52.054;-9.494;2022-08-11T02:30:15;101919.78;;;23.72;42.36
57616;BME280;43816;52.054;-9.494;2022-08-11T02:30:32;101925.47;;;23.71;42.30
57616;BME280;43816;52.054;-9.494;2022-08-11T02:31:02;101922.22;;;23.67;42.18
57616;BME280;43816;52.054;-9.494;2022-08-11T02:31:26;101919.66;;;23.65;42.48
57616;BME280;43816;52.054;-9.494;2022-08-11T02:32:24;101915.16;;;23.64;42.40
57616;BME280;43816;52.054;-9.494;2022-08-11T02:32:54;101914.31;;;23.64;42.43
57616;BME280;43816;52.054;-9.494;2022-08-11T02:33:50;101914.50;;;23.62;42.52
57616;BME280;43816;52.054;-9.494;2022-08-11T02:34:46;101918.66;;;23.58;42.61
57616;BME280;43816;52.054;-9.494;2022-08-11T02:35:15;101915.03;;;23.58;42.75
57616;BME280;43816;52.054;-9.494;2022-08-11T02:35:33;101911.44;;;23.57;42.61
57616;BME280;43816;52.054;-9.494;2022-08-11T02:36:06;101913.16;;;23.58;42.50
57616;BME280;43816;52.054;-9.494;2022-08-11T02:36:24;101914.84;;;23.59;42.50
57616;BME280;43816;52.054;-9.494;2022-08-11T02:36:44;101915.91;;;23.58;42.37
57616;BME280;43816;52.054;-9.494;2022-08-11T02:37:26;101915.03;;;23.58;42.31
57616;BME280;43816;52.054;-9.494;2022-08-11T02:37:49;101903.34;;;23.56;42.39
57616;BME280;43816;52.054;-9.494;2022-08-11T02:39:07;101908.34;;;23.52;42.48
57616;BME280;43816;52.054;-9.494;2022-08-11T02:39:19;101907.34;;;23.53;42.51
57616;BME280;43816;52.054;-9.494;2022-08-11T02:39:37;101915.75;;;23.52;42.51
57616;BME280;43816;52.054;-9.494;2022-08-11T02:40:33;101915.75;;;23.52;42.49
57616;BME280;43816;52.054;-9.494;2022-08-11T02:40:52;101907.69;;;23.50;42.65
57616;BME280;43816;52.054;-9.494;2022-08-11T02:41:53;101908.88;;;23.48;42.57
57616;BME280;43816;52.054;-9.494;2022-08-11T02:43:06;101903.38;;;23.48;42.68
57616;BME280;43816;52.054;-9.494;2022-08-11T02:43:26;101909.72;;;23.48;42.54
57616;BME280;43816;52.054;-9.494;2022-08-11T02:43:52;101898.72;;;23.48;42.57
57616;BME280;43816;52.054;-9.494;2022-08-11T02:44:27;101903.38;;;23.48;42.50
57616;BME280;43816;52.054;-9.494;2022-08-11T02:44:54;101903.56;;;23.46;42.55
57616;BME280;43816;52.054;-9.494;2022-08-11T02:46:05;101896.53;;;23.43;42.74
57616;BME280;43816;52.054;-9.494;2022-08-11T02:46:24;101906.66;;;23.43;42.78
57616;BME280;43816;52.054;-9.494;2022-08-11T02:46:55;101896.88;;;23.40;42.87
57616;BME280;43816;52.054;-9.494;2022-08-11T02:48:24;101908.38;;;23.36;42.68
57616;BME280;43816;52.054;-9.494;2022-08-11T02:49:27;101902.22;;;23.34;42.78
57616;BME280;43816;52.054;-9.494;2022-08-11T02:50:02;101896.91;;;23.32;42.86
57616;BME280;43816;52.054;-9.494;2022-08-11T02:50:22;101903.25;;;23.33;42.64
57616;BME280;43816;52.054;-9.494;2022-08-11T02:50:38;101905.97;;;23.33;42.99
57616;BME280;43816;52.054;-9.494;2022-08-11T02:51:26;101902.56;;;23.31;42.91
57616;BME280;43816;52.054;-9.494;2022-08-11T02:52:40;101901.72;;;23.30;42.86
57616;BME280;43816;52.054;-9.494;2022-08-11T02:54:06;101898.25;;;23.28;42.85
57616;BME280;43816;52.054;-9.494;2022-08-11T02:55:32;101900.84;;;23.30;42.79
57616;BME280;43816;52.054;-9.494;2022-08-11T02:56:18;101895.50;;;23.28;42.59